createdAt,value
2018-06-05T00:01:48.608Z,59.59
2018-06-05T00:04:00.976Z,59.62
2018-06-05T00:06:13.354Z,59.54
2018-06-05T00:08:25.954Z,59.73
2018-06-05T00:10:38.294Z,59.53
2018-06-05T00:12:50.715Z,60.05
2018-06-05T00:15:03.102Z,60.42
2018-06-05T00:17:15.469Z,60.71
2018-06-05T00:19:27.862Z,60.55
2018-06-05T00:21:40.309Z,60.60
2018-06-05T00:23:52.666Z,60.22
2018-06-05T00:26:05.113Z,60.52
2018-06-05T00:28:17.486Z,60.65
2018-06-05T00:30:29.901Z,60.15
2018-06-05T00:32:42.307Z,60.62
2018-06-05T00:34:54.714Z,60.71
2018-06-05T00:37:07.132Z,61.08
2018-06-05T00:39:19.530Z,60.11
2018-06-05T00:41:31.889Z,60.83
2018-06-05T00:43:44.260Z,59.86
2018-06-05T00:45:56.623Z,60.63
2018-06-05T00:48:09.051Z,60.90
2018-06-05T00:50:21.502Z,60.42
2018-06-05T00:52:33.838Z,60.38
2018-06-05T00:54:46.254Z,60.42
2018-06-05T00:56:58.666Z,61.57
2018-06-05T00:59:11.146Z,61.38
2018-06-05T01:01:23.498Z,61.83
2018-06-05T01:03:35.955Z,62.77
2018-06-05T01:05:48.302Z,62.80
2018-06-05T01:08:00.658Z,61.66
2018-06-05T01:10:13.035Z,62.16
2018-06-05T01:12:25.454Z,61.72
2018-06-05T01:14:37.808Z,62.08
2018-06-05T01:16:50.169Z,61.08
2018-06-05T01:19:02.502Z,61.86
2018-06-05T01:21:14.859Z,61.16
2018-06-05T01:23:27.226Z,61.92
2018-06-05T01:25:39.622Z,61.96
2018-06-05T01:27:52.082Z,62.41
2018-06-05T01:30:04.458Z,62.21
2018-06-05T01:32:16.841Z,61.25
2018-06-05T01:34:29.173Z,61.67
2018-06-05T01:36:41.658Z,62.27
2018-06-05T01:38:54.013Z,62.22
2018-06-05T01:41:06.548Z,62.43
2018-06-05T01:43:18.998Z,62.41
2018-06-05T01:45:31.403Z,61.59
2018-06-05T01:47:43.789Z,61.54
2018-06-05T01:49:56.135Z,61.40
2018-06-05T01:52:08.946Z,62.31
2018-06-05T01:54:21.262Z,62.24
2018-06-05T01:56:33.622Z,62.14
2018-06-05T01:58:46.054Z,62.50
2018-06-05T02:00:58.368Z,63.00
2018-06-05T02:03:10.809Z,63.30
2018-06-05T02:05:23.443Z,63.70
2018-06-05T02:07:35.883Z,63.00
2018-06-05T02:09:48.290Z,63.03
2018-06-05T02:12:00.714Z,63.29
2018-06-05T02:14:13.093Z,64.06
2018-06-05T02:16:25.539Z,64.42
2018-06-05T02:18:38.905Z,64.31
2018-06-05T02:20:51.260Z,64.32
2018-06-05T02:23:03.719Z,64.02
2018-06-05T02:25:16.119Z,64.58
2018-06-05T02:27:28.529Z,63.86
2018-06-05T02:29:40.866Z,64.82
2018-06-05T02:31:53.213Z,64.46
2018-06-05T02:34:05.619Z,64.75
2018-06-05T02:36:18.125Z,64.43
2018-06-05T02:38:30.541Z,64.77
2018-06-05T02:40:42.986Z,64.81
2018-06-05T02:42:55.371Z,64.79
2018-06-05T02:45:07.762Z,64.36
2018-06-05T02:47:20.198Z,65.04
2018-06-05T02:49:32.574Z,64.47
2018-06-05T02:51:44.903Z,64.53
2018-06-05T02:53:57.287Z,64.41
2018-06-05T02:56:09.645Z,64.18
2018-06-05T02:58:22.026Z,64.72
2018-06-05T03:00:34.410Z,64.32
2018-06-05T03:02:46.806Z,64.43
2018-06-05T03:04:59.128Z,64.54
2018-06-05T03:07:11.571Z,65.74
2018-06-05T03:09:23.956Z,65.40
2018-06-05T03:11:36.500Z,64.93
2018-06-05T03:13:48.823Z,65.26
2018-06-05T03:16:01.230Z,65.99
2018-06-05T03:18:13.666Z,65.31
2018-06-05T03:20:26.558Z,65.19
2018-06-05T03:22:38.924Z,65.63
2018-06-05T03:24:51.262Z,65.34
2018-06-05T03:27:03.626Z,65.11
2018-06-05T03:29:15.978Z,65.27
2018-06-05T03:31:28.315Z,64.52
2018-06-05T03:33:41.066Z,64.79
2018-06-05T03:35:53.407Z,65.65
2018-06-05T03:38:05.789Z,65.77
2018-06-05T03:40:18.135Z,64.53
2018-06-05T03:42:30.535Z,65.45
2018-06-05T03:44:42.985Z,65.03
2018-06-05T03:46:55.319Z,65.01
2018-06-05T03:49:07.705Z,64.80
2018-06-05T03:51:20.193Z,65.59
2018-06-05T03:53:32.658Z,65.50
2018-06-05T03:55:45.100Z,64.68
2018-06-05T03:57:57.467Z,64.68
2018-06-05T04:00:09.947Z,65.03
2018-06-05T04:02:22.334Z,64.84
2018-06-05T04:04:34.734Z,64.14
2018-06-05T04:06:50.722Z,64.62
2018-06-05T04:09:04.127Z,64.93
2018-06-05T04:11:16.457Z,64.04
2018-06-05T04:13:28.799Z,63.82
2018-06-05T04:15:41.357Z,64.53
2018-06-05T04:17:53.923Z,63.87
2018-06-05T04:20:06.321Z,64.28
2018-06-05T04:22:18.656Z,64.34
2018-06-05T04:24:31.104Z,63.84
2018-06-05T04:26:43.554Z,63.28
2018-06-05T04:28:55.889Z,62.74
2018-06-05T04:31:08.323Z,62.31
2018-06-05T04:33:20.712Z,61.64
2018-06-05T04:35:33.146Z,60.67
2018-06-05T04:37:45.699Z,60.20
2018-06-05T04:39:58.058Z,60.38
2018-06-05T04:42:10.415Z,61.30
2018-06-05T04:44:22.829Z,61.02
2018-06-05T04:46:35.262Z,60.40
2018-06-05T04:48:47.702Z,60.36
2018-06-05T04:51:00.015Z,60.14
2018-06-05T04:53:12.607Z,60.60
2018-06-05T04:55:24.938Z,61.03
2018-06-05T04:57:37.638Z,60.88
2018-06-05T04:59:51.114Z,59.87
2018-06-05T05:02:03.513Z,59.65
2018-06-05T05:04:15.905Z,58.71
2018-06-05T05:06:28.267Z,58.87
2018-06-05T05:08:40.656Z,59.04
2018-06-05T05:10:56.142Z,58.94
2018-06-05T05:13:08.697Z,57.57
2018-06-05T05:15:21.062Z,57.29
2018-06-05T05:17:33.370Z,56.71
2018-06-05T05:19:45.748Z,57.51
2018-06-05T05:21:58.162Z,56.51
2018-06-05T05:24:10.708Z,57.31
2018-06-05T05:26:23.074Z,56.47
2018-06-05T05:28:35.515Z,56.31
2018-06-05T05:30:47.994Z,56.88
2018-06-05T05:33:00.393Z,56.43
2018-06-05T05:35:12.778Z,55.31
2018-06-05T05:37:25.312Z,55.14
2018-06-05T05:39:37.821Z,55.95
2018-06-05T05:41:50.317Z,54.90
2018-06-05T05:44:03.430Z,54.23
2018-06-05T05:46:15.875Z,54.48
2018-06-05T05:48:28.268Z,55.20
2018-06-05T05:50:40.711Z,53.34
2018-06-05T05:52:53.170Z,53.17
2018-06-05T05:55:05.614Z,51.89
2018-06-05T05:57:17.935Z,51.15
2018-06-05T05:59:31.210Z,51.81
2018-06-05T06:01:43.688Z,51.77
2018-06-05T06:03:56.063Z,51.81
2018-06-05T06:06:08.555Z,51.30
2018-06-05T06:08:20.947Z,51.70
2018-06-05T06:10:33.302Z,52.51
2018-06-05T06:12:45.686Z,50.42
2018-06-05T06:14:58.160Z,49.74
2018-06-05T06:17:10.598Z,48.56
2018-06-05T06:19:23.036Z,51.03
2018-06-05T06:21:35.443Z,48.97
2018-06-05T06:23:47.830Z,49.64
2018-06-05T06:26:00.231Z,49.37
2018-06-05T06:28:12.791Z,49.43
2018-06-05T06:30:25.168Z,49.97
2018-06-05T06:32:37.579Z,48.72
2018-06-05T06:34:49.995Z,48.22
2018-06-05T06:37:02.494Z,47.47
2018-06-05T06:39:14.895Z,48.38
2018-06-05T06:41:27.326Z,46.67
2018-06-05T06:43:39.726Z,46.31
2018-06-05T06:45:52.229Z,46.31
2018-06-05T06:48:04.839Z,47.01
2018-06-05T06:50:17.219Z,45.11
2018-06-05T06:52:29.638Z,44.64
2018-06-05T06:54:42.138Z,45.01
2018-06-05T06:56:54.459Z,44.32
2018-06-05T06:59:06.875Z,43.62
2018-06-05T07:01:19.246Z,44.80
2018-06-05T07:03:31.689Z,45.21
2018-06-05T07:05:44.093Z,44.02
2018-06-05T07:07:56.490Z,44.62
2018-06-05T07:10:08.868Z,45.78
2018-06-05T07:12:21.292Z,44.92
2018-06-05T07:14:34.357Z,42.75
2018-06-05T07:16:46.667Z,42.99
2018-06-05T07:18:59.031Z,42.00
2018-06-05T07:21:11.489Z,39.28
2018-06-05T07:23:23.945Z,42.79
2018-06-05T07:25:36.315Z,40.31
2018-06-05T07:27:48.726Z,40.49
2018-06-05T07:30:01.131Z,38.84
2018-06-05T07:32:13.451Z,39.02
2018-06-05T07:34:25.807Z,38.28
2018-06-05T07:36:38.214Z,39.10
2018-06-05T07:38:50.590Z,38.69
2018-06-05T07:41:03.020Z,38.74
2018-06-05T07:43:15.370Z,38.02
2018-06-05T07:45:27.774Z,38.07
2018-06-05T07:47:40.162Z,38.03
2018-06-05T07:49:52.776Z,36.91
2018-06-05T07:52:05.246Z,36.32
2018-06-05T07:54:17.586Z,36.43
2018-06-05T07:56:29.942Z,37.64
2018-06-05T07:58:42.345Z,37.42
2018-06-05T08:00:54.853Z,36.63
2018-06-05T08:03:07.318Z,38.00
2018-06-05T08:05:19.638Z,36.69
2018-06-05T08:07:32.093Z,36.74
2018-06-05T08:09:44.506Z,36.76
2018-06-05T08:11:57.001Z,35.76
2018-06-05T08:14:09.404Z,35.62
2018-06-05T08:16:21.819Z,36.65
2018-06-05T08:18:34.327Z,35.96
2018-06-05T08:20:46.765Z,35.94
2018-06-05T08:22:59.163Z,35.93
2018-06-05T08:25:11.583Z,36.92
2018-06-05T08:27:24.014Z,36.26
2018-06-05T08:29:36.447Z,35.77
2018-06-05T08:31:48.940Z,35.15
2018-06-05T08:34:01.364Z,34.53
2018-06-05T08:36:13.795Z,34.55
2018-06-05T08:38:26.148Z,34.01
2018-06-05T08:40:38.601Z,33.62
2018-06-05T08:42:50.953Z,34.98
2018-06-05T08:45:04.275Z,35.67
2018-06-05T08:47:16.754Z,34.71
2018-06-05T08:49:29.138Z,35.44
2018-06-05T08:51:42.094Z,34.25
2018-06-05T08:53:54.580Z,34.98
2018-06-05T08:56:07.077Z,33.35
2018-06-05T08:58:19.454Z,33.88
2018-06-05T09:00:31.905Z,34.88
2018-06-05T09:02:44.265Z,35.91
2018-06-05T09:04:56.629Z,34.83
2018-06-05T09:07:09.137Z,34.86
2018-06-05T09:09:21.551Z,34.50
2018-06-05T09:11:33.977Z,33.63
2018-06-05T09:13:46.319Z,33.82
2018-06-05T09:15:58.896Z,33.62
2018-06-05T09:18:11.426Z,34.95
2018-06-05T09:20:23.872Z,34.24
2018-06-05T09:22:36.226Z,34.29
2018-06-05T09:24:48.565Z,33.57
2018-06-05T09:27:01.094Z,34.91
2018-06-05T09:29:13.612Z,34.23
2018-06-05T09:31:26.880Z,33.75
2018-06-05T09:33:39.318Z,35.50
2018-06-05T09:35:51.731Z,34.02
2018-06-05T09:38:05.151Z,35.04
2018-06-05T09:40:17.565Z,33.45
2018-06-05T09:42:29.938Z,33.75
2018-06-05T09:44:42.382Z,33.27
2018-06-05T09:46:55.235Z,33.14
2018-06-05T09:49:07.691Z,33.95
2018-06-05T09:51:20.054Z,33.60
2018-06-05T09:53:32.646Z,32.67
2018-06-05T09:55:45.034Z,33.46
2018-06-05T09:57:57.566Z,31.38
2018-06-05T10:00:09.898Z,33.49
2018-06-05T10:02:22.271Z,32.75
2018-06-05T10:04:34.898Z,32.35
2018-06-05T10:06:47.328Z,31.56
2018-06-05T10:08:59.845Z,31.22
2018-06-05T10:11:12.210Z,31.12
2018-06-05T10:13:24.579Z,32.24
2018-06-05T10:15:37.068Z,32.74
2018-06-05T10:17:49.453Z,31.41
2018-06-05T10:20:01.863Z,30.81
2018-06-05T10:22:14.278Z,31.32
2018-06-05T10:24:26.770Z,31.48
2018-06-05T10:26:39.174Z,31.23
2018-06-05T10:28:51.620Z,31.25
2018-06-05T10:31:04.042Z,31.78
2018-06-05T10:33:16.607Z,31.11
2018-06-05T10:35:28.981Z,31.46
2018-06-05T10:37:41.419Z,29.98
2018-06-05T10:39:53.817Z,30.91
2018-06-05T10:42:06.247Z,31.11
2018-06-05T10:44:18.724Z,29.43
2018-06-05T10:46:31.289Z,30.24
2018-06-05T10:48:43.675Z,30.17
2018-06-05T10:50:56.050Z,31.68
2018-06-05T10:53:08.561Z,31.57
2018-06-05T10:55:21.750Z,32.34
2018-06-05T10:57:34.130Z,33.57
2018-06-05T10:59:46.537Z,33.09
2018-06-05T11:01:58.941Z,32.64
2018-06-05T11:04:11.347Z,33.85
2018-06-05T11:06:23.713Z,34.24
2018-06-05T11:08:36.117Z,32.56
2018-06-05T11:10:48.487Z,32.37
2018-06-05T11:13:00.914Z,34.08
2018-06-05T11:15:13.296Z,34.24
2018-06-05T11:17:25.752Z,34.98
2018-06-05T11:19:38.123Z,33.37
2018-06-05T11:21:50.485Z,33.95
2018-06-05T11:24:03.157Z,33.96
2018-06-05T11:26:15.646Z,34.48
2018-06-05T11:28:28.083Z,35.01
2018-06-05T11:30:41.419Z,33.75
2018-06-05T11:32:53.778Z,34.13
2018-06-05T11:35:06.224Z,34.74
2018-06-05T11:37:18.730Z,32.59
2018-06-05T11:39:31.098Z,32.53
2018-06-05T11:41:43.980Z,32.38
2018-06-05T11:43:56.494Z,31.49
2018-06-05T11:46:08.899Z,31.19
2018-06-05T11:48:21.393Z,31.00
2018-06-05T11:50:33.759Z,31.23
2018-06-05T11:52:46.272Z,30.67
2018-06-05T11:54:58.718Z,32.85
2018-06-05T11:57:11.059Z,32.79
2018-06-05T11:59:23.641Z,33.67
2018-06-05T12:01:36.716Z,34.53
2018-06-05T12:03:49.140Z,33.78
2018-06-05T12:06:01.849Z,33.43
2018-06-05T12:08:14.274Z,33.16
2018-06-05T12:10:26.843Z,36.36
2018-06-05T12:12:39.243Z,35.90
2018-06-05T12:14:51.676Z,35.52
2018-06-05T12:17:04.143Z,31.52
2018-06-05T12:19:16.526Z,32.57
2018-06-05T12:21:28.949Z,32.33
2018-06-05T12:23:41.435Z,32.64
2018-06-05T12:25:53.773Z,33.59
2018-06-05T12:28:06.355Z,34.67
2018-06-05T12:30:18.805Z,33.21
2018-06-05T12:32:31.243Z,33.21
2018-06-05T12:34:43.647Z,31.79
2018-06-05T12:36:56.176Z,32.90
2018-06-05T12:39:08.715Z,31.82
2018-06-05T12:41:21.119Z,32.57
2018-06-05T12:43:33.726Z,32.78
2018-06-05T12:45:46.088Z,33.31
2018-06-05T12:47:58.687Z,32.65
2018-06-05T12:50:11.201Z,33.02
2018-06-05T12:52:23.735Z,33.06
2018-06-05T12:54:36.122Z,34.16
2018-06-05T12:56:48.485Z,34.08
2018-06-05T12:59:01.787Z,34.64
2018-06-05T13:01:14.172Z,33.65
2018-06-05T13:03:26.563Z,34.96
2018-06-05T13:05:38.989Z,32.82
2018-06-05T13:07:51.358Z,34.40
2018-06-05T13:10:03.935Z,32.96
2018-06-05T13:12:16.427Z,32.80
2018-06-05T13:14:29.138Z,33.35
2018-06-05T13:16:41.600Z,31.58
2018-06-05T13:18:54.056Z,33.77
2018-06-05T13:21:06.579Z,32.14
2018-06-05T13:23:19.063Z,32.11
2018-06-05T13:25:31.526Z,33.32
2018-06-05T13:27:44.000Z,33.19
2018-06-05T13:29:56.606Z,31.08
2018-06-05T13:32:09.058Z,30.91
2018-06-05T13:34:22.441Z,31.43
2018-06-05T13:36:34.969Z,31.58
2018-06-05T13:38:47.490Z,31.72
2018-06-05T13:40:59.933Z,32.41
2018-06-05T13:43:12.399Z,31.21
2018-06-05T13:45:25.487Z,31.74
2018-06-05T13:47:38.031Z,31.99
2018-06-05T13:49:50.444Z,33.13
2018-06-05T13:52:03.655Z,32.36
2018-06-05T13:54:16.024Z,31.05
2018-06-05T13:56:28.476Z,31.64
2018-06-05T13:58:41.489Z,32.00
2018-06-05T14:00:54.050Z,32.09
2018-06-05T14:03:06.441Z,30.65
2018-06-05T14:05:20.033Z,32.23
2018-06-05T14:07:32.473Z,32.32
2018-06-05T14:09:45.051Z,32.90
2018-06-05T14:11:57.539Z,32.30
2018-06-05T14:14:09.940Z,31.87
2018-06-05T14:16:22.406Z,33.22
2018-06-05T14:18:34.906Z,31.77
2018-06-05T14:20:47.445Z,32.75
2018-06-05T14:23:00.067Z,33.44
2018-06-05T14:25:12.495Z,34.22
2018-06-05T14:27:24.946Z,34.67
2018-06-05T14:29:38.683Z,34.52
2018-06-05T14:31:51.221Z,34.65
2018-06-05T14:34:03.805Z,34.90
2018-06-05T14:36:16.396Z,35.44
2018-06-05T14:38:28.939Z,34.49
2018-06-05T14:40:41.387Z,34.42
2018-06-05T14:42:53.854Z,34.47
2018-06-05T14:45:06.299Z,34.50
2018-06-05T14:47:18.817Z,35.59
2018-06-05T14:49:31.274Z,36.47
2018-06-05T14:51:43.717Z,37.00
2018-06-05T14:53:56.259Z,36.52
2018-06-05T14:56:08.802Z,36.82
2018-06-05T14:58:21.248Z,35.65
2018-06-05T15:00:33.904Z,34.10
2018-06-05T15:02:46.617Z,33.25
2018-06-05T15:04:59.110Z,34.04
2018-06-05T15:07:11.502Z,34.66
2018-06-05T15:09:23.894Z,33.97
2018-06-05T15:11:36.351Z,34.08
2018-06-05T15:13:48.734Z,35.06
2018-06-05T15:16:01.477Z,35.91
2018-06-05T15:18:14.060Z,35.55
2018-06-05T15:20:27.678Z,35.42
2018-06-05T15:22:40.332Z,35.15
2018-06-05T15:24:52.725Z,33.80
2018-06-05T15:27:05.062Z,33.07
2018-06-05T15:29:17.963Z,33.27
2018-06-05T15:31:30.335Z,33.84
2018-06-05T15:33:42.966Z,33.19
2018-06-05T15:35:55.615Z,33.46
2018-06-05T15:38:08.077Z,33.67
2018-06-05T15:40:20.503Z,32.94
2018-06-05T15:42:34.058Z,33.71
2018-06-05T15:44:46.494Z,33.22
2018-06-05T15:46:59.023Z,34.41
2018-06-05T15:49:11.404Z,34.07
2018-06-05T15:51:24.971Z,33.46
2018-06-05T15:53:37.434Z,33.36
2018-06-05T15:55:49.926Z,33.08
2018-06-05T15:58:02.585Z,33.29
2018-06-05T16:00:14.980Z,32.76
2018-06-05T16:02:27.371Z,33.76
2018-06-05T16:04:39.823Z,32.53
2018-06-05T16:06:53.670Z,32.91
2018-06-05T16:09:08.595Z,32.67
2018-06-05T16:11:21.997Z,33.94
2018-06-05T16:13:34.534Z,34.72
2018-06-05T16:15:47.189Z,34.10
2018-06-05T16:17:59.652Z,34.84
2018-06-05T16:20:12.036Z,34.55
2018-06-05T16:22:24.538Z,35.11
2018-06-05T16:24:36.975Z,34.13
2018-06-05T16:26:49.508Z,35.31
2018-06-05T16:29:02.441Z,35.61
2018-06-05T16:31:14.853Z,35.35
2018-06-05T16:33:27.364Z,35.21
2018-06-05T16:35:39.727Z,34.68
2018-06-05T16:37:52.120Z,34.33
2018-06-05T16:40:04.655Z,35.15
2018-06-05T16:42:17.620Z,34.50
2018-06-05T16:44:30.099Z,34.81
2018-06-05T16:46:42.574Z,35.77
2018-06-05T16:48:54.987Z,35.13
2018-06-05T16:51:07.448Z,36.27
2018-06-05T16:53:19.915Z,36.30
2018-06-05T16:55:32.360Z,35.56
2018-06-05T16:57:44.848Z,36.33
2018-06-05T16:59:59.289Z,37.06
2018-06-05T17:02:11.934Z,35.79
2018-06-05T17:04:25.431Z,37.04
2018-06-05T17:06:37.867Z,36.49
2018-06-05T17:08:50.423Z,35.97
2018-06-05T17:11:03.435Z,36.49
2018-06-05T17:13:15.880Z,36.37
2018-06-05T17:15:29.064Z,35.84
2018-06-05T17:17:42.038Z,35.92
2018-06-05T17:19:54.607Z,36.29
2018-06-05T17:22:07.318Z,36.54
2018-06-05T17:24:19.703Z,36.23
2018-06-05T17:26:32.187Z,36.99
2018-06-05T17:28:44.603Z,37.30
2018-06-05T17:30:57.095Z,36.67
2018-06-05T17:33:09.564Z,37.12
2018-06-05T17:35:22.006Z,37.05
2018-06-05T17:37:34.418Z,36.36
2018-06-05T17:39:46.903Z,37.33
2018-06-05T17:42:00.428Z,36.75
2018-06-05T17:44:12.842Z,36.67
2018-06-05T17:46:25.362Z,37.71
2018-06-05T17:48:37.930Z,37.45
2018-06-05T17:50:52.567Z,36.96
2018-06-05T17:53:05.152Z,36.69
2018-06-05T17:55:17.614Z,37.73
2018-06-05T17:57:30.118Z,37.13
2018-06-05T17:59:42.572Z,37.57
2018-06-05T18:01:55.392Z,37.00
2018-06-05T18:04:07.856Z,37.65
2018-06-05T18:06:20.445Z,38.38
2018-06-05T18:08:32.916Z,37.41
2018-06-05T18:10:45.355Z,37.13
2018-06-05T18:12:57.817Z,37.26
2018-06-05T18:15:10.223Z,37.84
2018-06-05T18:17:22.586Z,38.20
2018-06-05T18:19:34.969Z,37.40
2018-06-05T18:21:47.590Z,38.45
2018-06-05T18:24:00.219Z,37.69
2018-06-05T18:26:12.566Z,38.08
2018-06-05T18:28:24.967Z,38.34
2018-06-05T18:30:37.519Z,37.66
2018-06-05T18:32:50.128Z,38.50
2018-06-05T18:35:03.021Z,37.82
2018-06-05T18:37:15.545Z,38.02
2018-06-05T18:39:35.822Z,38.50
2018-06-05T18:41:48.613Z,38.71
2018-06-05T18:44:01.088Z,37.95
2018-06-05T18:46:13.545Z,38.38
2018-06-05T18:48:25.898Z,37.71
2018-06-05T18:50:38.381Z,38.08
2018-06-05T18:52:50.903Z,37.98
2018-06-05T18:55:03.420Z,38.49
2018-06-05T18:57:15.911Z,38.67
2018-06-05T18:59:28.339Z,38.35
2018-06-05T19:01:40.718Z,38.89
2018-06-05T19:03:53.274Z,38.31
2018-06-05T19:06:05.901Z,38.97
2018-06-05T19:08:18.272Z,39.09
2018-06-05T19:10:30.877Z,38.20
2018-06-05T19:12:43.313Z,41.39
2018-06-05T19:14:55.726Z,43.38
2018-06-05T19:17:08.156Z,44.76
2018-06-05T19:19:20.550Z,46.14
2018-06-05T19:21:33.041Z,45.75
2018-06-05T19:23:45.414Z,44.87
2018-06-05T19:25:57.847Z,44.95
2018-06-05T19:28:10.282Z,46.31
2018-06-05T19:30:22.703Z,45.86
2018-06-05T19:32:35.044Z,47.10
2018-06-05T19:34:47.535Z,46.67
2018-06-05T19:36:59.994Z,46.72
2018-06-05T19:39:12.483Z,46.99
2018-06-05T19:41:24.999Z,47.18
2018-06-05T19:43:37.354Z,48.24
2018-06-05T19:45:50.686Z,47.84
2018-06-05T19:48:08.185Z,47.68
2018-06-05T19:50:24.816Z,48.65
2018-06-05T19:52:37.386Z,48.22
2018-06-05T19:54:49.722Z,47.53
2018-06-05T19:57:02.174Z,48.47
2018-06-05T19:59:14.621Z,47.91
2018-06-05T20:01:27.183Z,48.70
2018-06-05T20:03:39.550Z,48.40
2018-06-05T20:05:51.955Z,47.38
2018-06-05T20:08:04.446Z,47.42
2018-06-05T20:10:17.017Z,46.85
2018-06-05T20:12:29.583Z,46.66
2018-06-05T20:14:42.025Z,47.18
2018-06-05T20:16:54.438Z,46.58
2018-06-05T20:19:06.956Z,45.92
2018-06-05T20:21:19.414Z,46.99
2018-06-05T20:23:31.843Z,45.83
2018-06-05T20:25:44.250Z,46.56
2018-06-05T20:27:56.620Z,47.82
2018-06-05T20:30:09.181Z,48.26
2018-06-05T20:32:21.540Z,48.43
2018-06-05T20:34:33.968Z,49.85
2018-06-05T20:36:46.586Z,49.21
2018-06-05T20:38:59.075Z,49.72
2018-06-05T20:41:11.488Z,49.91
2018-06-05T20:43:23.885Z,51.17
2018-06-05T20:45:36.298Z,50.83
2018-06-05T20:47:48.806Z,50.89
2018-06-05T20:50:01.176Z,52.34
2018-06-05T20:52:13.563Z,51.80
2018-06-05T20:54:26.071Z,52.69
2018-06-05T20:56:38.545Z,52.46
2018-06-05T20:58:51.150Z,52.93
2018-06-05T21:01:03.728Z,52.10
2018-06-05T21:03:16.167Z,51.85
2018-06-05T21:05:28.584Z,52.88
2018-06-05T21:07:41.330Z,52.93
2018-06-05T21:09:53.815Z,52.94
2018-06-05T21:12:06.205Z,52.60
2018-06-05T21:14:18.588Z,52.06
2018-06-05T21:16:31.033Z,52.60
2018-06-05T21:18:44.179Z,51.75
2018-06-05T21:20:56.833Z,52.25
2018-06-05T21:23:09.280Z,52.37
2018-06-05T21:25:22.053Z,53.26
2018-06-05T21:27:34.459Z,53.86
2018-06-05T21:29:47.037Z,53.82
2018-06-05T21:31:59.476Z,54.38
2018-06-05T21:34:11.857Z,54.27
2018-06-05T21:36:24.356Z,54.34
2018-06-05T21:38:36.734Z,55.57
2018-06-05T21:40:49.381Z,55.58
2018-06-05T21:43:01.941Z,54.92
2018-06-05T21:45:14.695Z,55.81
2018-06-05T21:47:27.310Z,55.69
2018-06-05T21:49:39.659Z,55.81
2018-06-05T21:51:52.199Z,56.32
2018-06-05T21:54:04.681Z,56.29
2018-06-05T21:56:17.160Z,57.01
2018-06-05T21:58:30.524Z,57.04
2018-06-05T22:00:43.046Z,57.10
2018-06-05T22:02:55.794Z,56.95
2018-06-05T22:05:08.206Z,57.39
2018-06-05T22:07:20.659Z,58.14
2018-06-05T22:09:33.366Z,57.28
2018-06-05T22:11:45.936Z,57.60
2018-06-05T22:13:58.357Z,58.22
2018-06-05T22:16:10.857Z,57.74
2018-06-05T22:18:23.268Z,57.62
2018-06-05T22:20:35.692Z,58.69
2018-06-05T22:22:48.123Z,58.93
2018-06-05T22:25:00.584Z,58.46
2018-06-05T22:27:13.052Z,57.89
2018-06-05T22:29:25.533Z,58.33
2018-06-05T22:31:37.987Z,58.88
2018-06-05T22:33:50.432Z,58.24
2018-06-05T22:36:02.814Z,58.55
2018-06-05T22:38:15.262Z,58.17
2018-06-05T22:40:27.671Z,59.00
2018-06-05T22:42:40.173Z,58.53
2018-06-05T22:44:52.599Z,57.89
2018-06-05T22:47:05.007Z,58.26
2018-06-05T22:49:17.487Z,58.14
2018-06-05T22:51:29.988Z,57.39
2018-06-05T22:53:42.382Z,57.88
2018-06-05T22:55:54.799Z,57.35
2018-06-05T22:58:07.331Z,57.94
2018-06-05T23:00:23.511Z,58.34
2018-06-05T23:02:35.893Z,57.34
2018-06-05T23:04:48.365Z,55.76
2018-06-05T23:07:00.745Z,55.79
2018-06-05T23:09:14.840Z,54.78
2018-06-05T23:11:27.226Z,54.30
2018-06-05T23:13:39.774Z,53.36
2018-06-05T23:15:52.220Z,53.43
2018-06-05T23:18:05.054Z,53.23
2018-06-05T23:22:29.271Z,52.49
2018-06-05T23:24:42.026Z,52.16
2018-06-05T23:26:54.393Z,51.99
2018-06-05T23:29:07.144Z,51.74
2018-06-05T23:31:19.653Z,52.46
2018-06-05T23:33:32.030Z,51.56
2018-06-05T23:35:44.454Z,51.53
2018-06-05T23:37:56.935Z,52.10
2018-06-05T23:40:09.476Z,52.09
2018-06-05T23:42:21.958Z,52.00
2018-06-05T23:44:35.589Z,51.22
2018-06-05T23:46:47.991Z,51.92
2018-06-05T23:49:00.463Z,52.07
2018-06-05T23:51:12.914Z,51.47
2018-06-05T23:53:25.391Z,52.08
2018-06-05T23:55:37.791Z,52.01
2018-06-05T23:57:50.248Z,52.27
